Time;durP1;ratioP1;P1;durP2;ratioP2;P2;SDS_P1;SDS_P2;PMS_P1;PMS_P2;Temp;Humidity;BMP_temperature;BMP_pressure;BME280_temperature;BME280_humidity;BME280_pressure;Samples;Min_cycle;Max_cycle;Signal;HPM_P1;HPM_P2
2022/05/14 00:00:21;;;;;;;9.90;4.33;;;13.00;99.90;;;;;;5114704;28;20178;-68
2022/05/14 00:02:47;;;;;;;6.77;3.80;;;13.00;99.90;;;;;;5114737;28;20339;-68
2022/05/14 00:05:13;;;;;;;5.03;3.47;;;13.00;99.90;;;;;;5114735;28;20253;-69
2022/05/14 00:07:38;;;;;;;3.77;2.87;;;12.90;99.90;;;;;;5116175;28;20253;-68
2022/05/14 00:10:06;;;;;;;4.13;2.73;;;12.90;99.90;;;;;;5116099;28;20170;-68
2022/05/14 00:15:16;;;;;;;8.93;2.87;;;13.00;99.90;;;;;;5114661;28;20219;-68
2022/05/14 00:17:41;;;;;;;4.40;2.93;;;12.80;99.90;;;;;;5114858;28;20162;-69
2022/05/14 00:20:08;;;;;;;4.93;2.80;;;12.80;99.90;;;;;;5116319;28;20637;-68
2022/05/14 00:22:34;;;;;;;3.93;2.43;;;12.70;99.90;;;;;;5116770;28;20223;-68
2022/05/14 00:24:59;;;;;;;3.70;2.77;;;12.80;99.90;;;;;;5098328;28;20609;-69
2022/05/14 00:27:25;;;;;;;3.57;2.53;;;12.80;99.90;;;;;;5119374;28;20165;-68
2022/05/14 00:29:51;;;;;;;3.33;2.47;;;12.80;99.90;;;;;;5120865;28;20166;-68
2022/05/14 00:32:16;;;;;;;6.30;2.80;;;12.70;99.90;;;;;;5102320;28;20545;-68
2022/05/14 00:34:42;;;;;;;3.60;2.80;;;12.70;99.90;;;;;;5120017;28;20238;-68
2022/05/14 00:37:07;;;;;;;5.47;2.90;;;12.70;99.90;;;;;;5119310;28;20158;-68
2022/05/14 00:39:33;;;;;;;5.00;2.93;;;12.70;99.90;;;;;;5119540;28;20160;-67
2022/05/14 00:41:58;;;;;;;6.80;3.60;;;12.80;99.90;;;;;;5118598;28;20249;-69
2022/05/14 00:44:24;;;;;;;3.63;2.57;;;12.50;99.90;;;;;;5119371;28;20602;-67
2022/05/14 00:47:02;;;;;;;2.43;2.00;;;12.40;99.90;;;;;;5119441;28;20488;-67
2022/05/14 00:49:31;;;;;;;5.47;2.83;;;12.40;99.90;;;;;;5119518;28;20166;-68
2022/05/14 00:51:59;;;;;;;4.10;2.33;;;12.50;99.90;;;;;;5118251;28;20198;-68
2022/05/14 00:54:34;;;;;;;3.97;2.30;;;12.40;99.90;;;;;;5107848;28;20520;-67
2022/05/14 00:57:06;;;;;;;5.07;2.30;;;12.40;99.90;;;;;;5133099;28;20214;-69
2022/05/14 00:59:32;;;;;;;5.83;2.80;;;12.30;99.90;;;;;;5119722;28;20167;-67
2022/05/14 01:01:59;;;;;;;4.73;2.50;;;12.20;99.90;;;;;;5119493;28;20180;-67
2022/05/14 01:04:26;;;;;;;5.20;2.80;;;12.30;99.90;;;;;;5135266;27;20489;-67
2022/05/14 01:07:15;;;;;;;5.43;2.73;;;12.30;99.90;;;;;;5118529;28;20695;-69
2022/05/14 01:09:45;;;;;;;3.20;2.47;;;12.40;99.90;;;;;;5118987;28;20163;-67
2022/05/14 01:12:11;;;;;;;4.53;2.80;;;12.30;99.90;;;;;;5100376;28;20233;-68
2022/05/14 01:14:37;;;;;;;4.77;2.77;;;12.00;99.90;;;;;;5118428;28;20162;-68
2022/05/14 01:17:03;;;;;;;2.80;2.43;;;12.10;99.90;;;;;;5119164;28;20169;-68
2022/05/14 01:19:29;;;;;;;6.17;2.83;;;12.20;99.90;;;;;;5119375;28;20209;-67
2022/05/14 01:22:16;;;;;;;3.33;2.67;;;12.00;99.90;;;;;;5118535;28;20166;-68
2022/05/14 01:27:48;;;;;;;5.17;2.53;;;12.00;99.90;;;;;;5118577;28;20226;-67
2022/05/14 01:30:14;;;;;;;2.53;2.30;;;12.10;99.90;;;;;;5120784;28;20242;-68
2022/05/14 01:32:40;;;;;;;7.17;2.27;;;11.90;99.90;;;;;;5121571;28;20182;-68
2022/05/14 01:35:07;;;;;;;3.47;2.33;;;12.00;99.90;;;;;;5123404;28;20188;-67
2022/05/14 01:37:34;;;;;;;3.20;2.60;;;12.10;99.90;;;;;;5118659;28;20162;-67
2022/05/14 01:40:00;;;;;;;7.63;2.57;;;12.20;99.90;;;;;;5100476;28;20185;-66
2022/05/14 01:42:26;;;;;;;3.47;2.20;;;12.20;99.90;;;;;;5119071;28;20184;-67
2022/05/14 01:44:51;;;;;;;3.10;2.13;;;12.20;99.90;;;;;;5122230;28;20170;-68
2022/05/14 01:47:17;;;;;;;3.87;2.70;;;12.20;99.90;;;;;;5117489;28;20268;-67
2022/05/14 01:49:42;;;;;;;7.80;2.60;;;12.00;99.90;;;;;;5120247;27;20196;-69
2022/05/14 01:52:09;;;;;;;4.80;2.37;;;12.10;99.90;;;;;;5139578;27;20198;-67
2022/05/14 01:54:34;;;;;;;3.70;2.43;;;12.10;99.90;;;;;;5138856;27;20172;-68
2022/05/14 01:57:00;;;;;;;2.77;2.50;;;11.90;99.90;;;;;;5139273;27;20158;-68
2022/05/14 01:59:26;;;;;;;3.50;2.70;;;11.80;99.90;;;;;;5139947;27;20253;-68
2022/05/14 02:01:52;;;;;;;4.33;2.90;;;11.90;99.90;;;;;;5139114;27;20621;-68
2022/05/14 02:04:17;;;;;;;3.27;2.23;;;11.90;99.90;;;;;;5139270;27;20199;-68
2022/05/14 02:06:44;;;;;;;2.97;2.67;;;11.80;99.90;;;;;;5139337;27;20216;-68
2022/05/14 02:09:12;;;;;;;3.77;2.60;;;11.90;99.90;;;;;;5138476;27;20173;-67
2022/05/14 02:11:41;;;;;;;11.87;2.70;;;11.60;99.90;;;;;;5138130;27;20173;-66
2022/05/14 02:14:08;;;;;;;4.73;2.50;;;11.90;99.90;;;;;;5137807;27;20607;-68
2022/05/14 02:16:33;;;;;;;3.80;2.50;;;12.00;99.90;;;;;;5153256;27;20204;-68
2022/05/14 02:18:59;;;;;;;5.70;2.53;;;11.70;99.90;;;;;;5137266;27;20232;-70
2022/05/14 02:21:25;;;;;;;2.67;2.37;;;11.70;99.90;;;;;;5137467;27;20169;-68
2022/05/14 02:23:52;;;;;;;3.43;2.50;;;11.60;99.90;;;;;;5137403;27;20242;-68
2022/05/14 02:26:18;;;;;;;3.83;2.10;;;11.60;99.90;;;;;;5137497;27;20609;-69
2022/05/14 02:28:44;;;;;;;3.10;2.27;;;11.60;99.90;;;;;;5119137;27;20188;-67
2022/05/14 02:31:10;;;;;;;3.93;2.43;;;11.50;99.90;;;;;;5138039;27;20585;-67
2022/05/14 02:33:37;;;;;;;5.23;2.50;;;11.30;99.90;;;;;;5137062;27;20240;-68
2022/05/14 02:36:04;;;;;;;5.07;2.40;;;11.30;99.90;;;;;;5137505;27;20199;-68
2022/05/14 02:38:31;;;;;;;4.10;2.53;;;11.30;99.90;;;;;;5119238;27;20229;-68
2022/05/14 02:40:57;;;;;;;4.47;2.63;;;11.40;99.90;;;;;;5138746;27;20160;-69
2022/05/14 02:43:24;;;;;;;3.10;2.20;;;11.40;99.90;;;;;;5138390;27;20171;-67
2022/05/14 02:45:50;;;;;;;4.43;2.60;;;11.40;99.90;;;;;;5137976;27;20154;-69
2022/05/14 02:48:16;;;;;;;3.80;2.53;;;11.30;99.90;;;;;;5138521;27;20159;-68
2022/05/14 02:50:43;;;;;;;3.03;2.03;;;11.60;99.90;;;;;;5137340;27;20160;-68
2022/05/14 02:53:09;;;;;;;4.97;2.60;;;11.60;99.90;;;;;;5137962;27;20200;-70
2022/05/14 02:55:35;;;;;;;2.60;2.20;;;11.40;99.90;;;;;;5138124;27;20157;-67
2022/05/14 02:58:00;;;;;;;5.60;3.17;;;11.30;99.90;;;;;;5137383;27;20162;-69
2022/05/14 03:00:26;;;;;;;3.03;2.30;;;11.30;99.90;;;;;;5136890;27;20163;-68
2022/05/14 03:02:53;;;;;;;3.30;2.50;;;11.30;99.90;;;;;;5136646;27;20625;-68
2022/05/14 03:05:20;;;;;;;5.83;2.63;;;11.10;99.90;;;;;;5136957;27;20166;-67
2022/05/14 03:07:46;;;;;;;5.73;2.40;;;11.20;99.90;;;;;;5137251;27;20169;-68
2022/05/14 03:10:13;;;;;;;3.53;2.33;;;11.20;99.90;;;;;;5137159;27;20180;-68
2022/05/14 03:12:39;;;;;;;3.03;2.30;;;11.10;99.90;;;;;;5136866;27;20661;-69
2022/05/14 03:15:06;;;;;;;3.43;2.63;;;11.20;99.90;;;;;;5137083;27;20168;-67
2022/05/14 03:17:34;;;;;;;3.03;2.60;;;11.20;99.90;;;;;;5117962;27;20189;-67
2022/05/14 03:20:01;;;;;;;8.90;3.10;;;11.00;99.90;;;;;;5137259;27;20153;-68
2022/05/14 03:22:27;;;;;;;2.70;2.37;;;11.00;99.90;;;;;;5137824;27;20161;-68
2022/05/14 03:24:53;;;;;;;4.90;2.83;;;11.10;99.90;;;;;;5137840;27;20161;-68
2022/05/14 03:27:18;;;;;;;7.40;2.43;;;11.00;99.90;;;;;;5138280;27;20184;-68
2022/05/14 03:29:44;;;;;;;3.23;2.67;;;11.10;99.90;;;;;;5138377;27;20242;-70
2022/05/14 03:32:09;;;;;;;8.13;2.37;;;11.30;99.90;;;;;;5138521;27;20281;-68
2022/05/14 03:34:36;;;;;;;2.50;2.30;;;11.30;99.90;;;;;;5138875;27;20477;-66
2022/05/14 03:37:02;;;;;;;4.50;2.50;;;10.90;99.90;;;;;;5140925;27;20170;-68
2022/05/14 03:39:28;;;;;;;5.47;2.83;;;11.00;99.90;;;;;;5139747;27;20209;-68
2022/05/14 03:41:53;;;;;;;3.17;2.30;;;11.10;99.90;;;;;;5140809;27;20244;-67
2022/05/14 03:44:19;;;;;;;2.93;2.63;;;11.20;99.90;;;;;;5143970;27;20158;-67
2022/05/14 03:46:45;;;;;;;4.47;2.50;;;11.20;99.90;;;;;;5137975;27;20172;-67
2022/05/14 03:49:10;;;;;;;4.07;2.53;;;11.20;99.90;;;;;;5136337;27;20626;-68
2022/05/14 03:51:36;;;;;;;3.83;2.53;;;11.40;99.90;;;;;;5138906;27;20611;-69
2022/05/14 03:54:04;;;;;;;7.07;3.00;;;11.30;99.90;;;;;;5140854;27;20165;-68
2022/05/14 03:56:30;;;;;;;4.73;2.90;;;11.30;99.90;;;;;;5141426;27;20177;-71
2022/05/14 03:58:56;;;;;;;9.73;3.50;;;11.50;99.90;;;;;;5139856;27;20166;-69
2022/05/14 04:01:21;;;;;;;4.77;2.53;;;11.50;99.90;;;;;;5139568;27;20177;-69
2022/05/14 04:03:47;;;;;;;2.90;2.50;;;11.30;99.90;;;;;;5140721;27;20167;-67
2022/05/14 04:06:12;;;;;;;3.27;2.73;;;11.20;99.90;;;;;;5140131;28;20231;-70
2022/05/14 04:08:39;;;;;;;5.73;3.03;;;11.30;99.90;;;;;;5138749;28;20193;-67
2022/05/14 04:11:05;;;;;;;2.73;2.40;;;11.40;99.90;;;;;;5140565;28;20165;-67
2022/05/14 04:13:31;;;;;;;3.40;2.40;;;11.30;99.90;;;;;;5138196;28;20196;-68
2022/05/14 04:15:58;;;;;;;4.33;2.87;;;11.40;99.90;;;;;;5136989;28;20194;-68
2022/05/14 04:18:26;;;;;;;3.77;2.60;;;11.70;99.90;;;;;;5135525;28;20298;-67
2022/05/14 04:20:53;;;;;;;5.83;2.70;;;11.30;99.90;;;;;;5135089;28;20154;-68
2022/05/14 04:23:21;;;;;;;2.40;2.20;;;11.40;99.90;;;;;;5116528;28;20260;-68
2022/05/14 04:25:50;;;;;;;3.50;2.60;;;11.50;99.90;;;;;;5119215;28;20623;-68
2022/05/14 04:28:17;;;;;;;4.47;2.43;;;11.80;99.90;;;;;;5136790;28;20168;-68
2022/05/14 04:30:43;;;;;;;5.37;2.80;;;11.90;99.90;;;;;;5153974;27;20181;-68
2022/05/14 04:33:09;;;;;;;3.10;2.43;;;11.80;99.90;;;;;;5139286;28;20200;-68
2022/05/14 04:35:35;;;;;;;5.80;2.70;;;11.80;99.90;;;;;;5155140;27;20200;-69
2022/05/14 04:38:00;;;;;;;3.23;2.40;;;11.80;99.90;;;;;;5140356;28;20158;-68
2022/05/14 04:40:27;;;;;;;2.80;2.60;;;11.90;99.90;;;;;;5139939;28;20158;-68
2022/05/14 04:42:52;;;;;;;6.30;2.47;;;11.80;99.90;;;;;;5134746;28;20210;-68
2022/05/14 04:45:18;;;;;;;4.00;2.60;;;11.90;99.90;;;;;;5115701;28;20264;-68
2022/05/14 04:47:44;;;;;;;3.00;2.20;;;11.90;99.90;;;;;;5134400;28;20242;-67
2022/05/14 04:50:11;;;;;;;3.40;2.50;;;12.00;99.90;;;;;;5134444;28;20172;-68
2022/05/14 04:52:37;;;;;;;3.63;2.40;;;11.90;99.90;;;;;;5134049;28;20218;-67
2022/05/14 04:55:03;;;;;;;4.10;2.50;;;12.00;99.90;;;;;;5115904;28;20268;-68
2022/05/14 04:57:28;;;;;;;9.57;2.40;;;12.10;99.90;;;;;;5134688;28;20170;-68
2022/05/14 04:59:54;;;;;;;2.43;2.10;;;12.40;99.90;;;;;;5134333;28;20204;-68
2022/05/14 05:05:04;;;;;;;2.60;2.40;;;12.10;99.90;;;;;;5134270;28;20210;-66
2022/05/14 05:07:30;;;;;;;4.93;2.40;;;12.20;99.90;;;;;;5133953;28;20312;-68
2022/05/14 05:09:55;;;;;;;3.33;2.57;;;12.30;99.90;;;;;;5134521;28;20193;-68
2022/05/14 05:12:21;;;;;;;4.13;2.53;;;12.00;99.90;;;;;;5135658;27;20197;-68
2022/05/14 05:14:47;;;;;;;4.53;2.77;;;12.30;99.90;;;;;;5096453;28;20212;-69
2022/05/14 05:17:12;;;;;;;5.63;2.50;;;12.50;99.90;;;;;;5117859;28;20163;-69
2022/05/14 05:19:38;;;;;;;3.87;2.60;;;12.70;99.90;;;;;;5117486;28;20166;-68
2022/05/14 05:22:04;;;;;;;3.60;2.73;;;12.80;99.90;;;;;;5117717;28;20211;-68
2022/05/14 05:24:30;;;;;;;3.47;2.60;;;12.80;99.90;;;;;;5099629;28;20184;-70
2022/05/14 05:26:55;;;;;;;3.10;2.47;;;13.00;99.90;;;;;;5099197;28;20162;-69
2022/05/14 05:29:21;;;;;;;3.73;2.57;;;13.00;99.90;;;;;;5099511;28;20174;-67
2022/05/14 05:31:47;;;;;;;3.50;2.27;;;12.70;99.90;;;;;;5116926;28;20154;-69
2022/05/14 05:34:12;;;;;;;3.77;2.70;;;13.00;99.90;;;;;;5117066;28;20159;-69
2022/05/14 05:36:38;;;;;;;2.70;2.23;;;13.00;99.90;;;;;;5117262;28;20216;-68
2022/05/14 05:39:04;;;;;;;4.13;2.20;;;13.00;99.90;;;;;;5100083;28;20189;-69
2022/05/14 05:41:29;;;;;;;3.70;2.73;;;13.10;99.90;;;;;;5119248;28;20517;-70
2022/05/14 05:43:55;;;;;;;3.53;2.50;;;13.20;99.90;;;;;;5119381;28;20163;-68
2022/05/14 05:46:21;;;;;;;6.77;2.73;;;13.30;99.90;;;;;;5124277;28;20162;-68
2022/05/14 05:48:47;;;;;;;4.33;2.40;;;13.40;99.90;;;;;;5124357;28;20162;-67
2022/05/14 05:51:13;;;;;;;3.97;2.97;;;13.40;99.90;;;;;;5137962;27;20264;-70
2022/05/14 05:59:07;;;;;;;3.10;2.20;;;13.80;99.90;;;;;;5117723;28;20686;-68
2022/05/14 06:01:33;;;;;;;2.80;2.37;;;13.80;99.90;;;;;;5117176;28;20170;-68
2022/05/14 06:03:59;;;;;;;3.93;3.17;;;14.00;99.90;;;;;;5101383;28;20174;-69
2022/05/14 06:06:25;;;;;;;5.37;2.43;;;14.00;99.90;;;;;;5119207;28;20352;-68
2022/05/14 06:08:53;;;;;;;2.40;2.20;;;14.10;99.90;;;;;;5120609;28;20186;-69
2022/05/14 06:11:19;;;;;;;2.63;2.27;;;14.00;99.90;;;;;;5118926;28;20173;-67
2022/05/14 06:13:45;;;;;;;2.80;2.23;;;14.30;99.90;;;;;;5116210;28;20531;-68
2022/05/14 06:16:13;;;;;;;4.10;2.40;;;14.40;99.90;;;;;;5098653;28;20556;-68
2022/05/14 06:18:39;;;;;;;3.03;2.37;;;14.60;99.90;;;;;;5115840;28;20201;-68
2022/05/14 06:21:05;;;;;;;2.47;2.27;;;14.80;99.90;;;;;;5116046;28;20158;-69
2022/05/14 06:23:32;;;;;;;7.47;2.57;;;14.70;99.90;;;;;;5098029;28;20178;-69
2022/05/14 06:25:57;;;;;;;4.80;2.50;;;14.80;99.90;;;;;;5104097;27;20343;-68
2022/05/14 06:28:23;;;;;;;5.17;2.87;;;14.90;99.90;;;;;;5139215;27;20207;-69
2022/05/14 06:30:49;;;;;;;2.53;2.20;;;15.10;99.90;;;;;;5147063;27;20154;-70
2022/05/14 06:33:16;;;;;;;3.10;2.30;;;15.40;99.90;;;;;;5147160;27;20224;-69
2022/05/14 06:35:43;;;;;;;2.00;1.80;;;15.60;99.90;;;;;;5137181;27;20161;-69
2022/05/14 06:38:08;;;;;;;3.30;2.40;;;15.70;99.90;;;;;;5136240;27;20154;-69
2022/05/14 06:40:36;;;;;;;5.97;2.27;;;15.90;99.90;;;;;;5136464;27;20169;-67
2022/05/14 06:43:01;;;;;;;5.67;2.67;;;15.90;99.90;;;;;;5136118;27;20157;-69
2022/05/14 06:45:27;;;;;;;2.90;2.23;;;16.00;99.90;;;;;;5135887;27;20215;-69
2022/05/14 06:47:53;;;;;;;7.17;2.03;;;16.10;99.90;;;;;;5135722;27;20205;-69
2022/05/14 06:50:19;;;;;;;4.87;2.30;;;16.30;99.90;;;;;;5136115;27;20229;-68
2022/05/14 06:52:48;;;;;;;2.73;2.10;;;16.50;99.90;;;;;;5135991;27;20182;-69
2022/05/14 06:55:17;;;;;;;4.03;2.33;;;16.40;99.90;;;;;;5135770;27;20172;-69
2022/05/14 06:57:43;;;;;;;4.95;1.90;;;16.40;99.90;;;;;;5135421;27;20617;-70
2022/05/14 07:00:09;;;;;;;4.07;2.10;;;16.70;99.90;;;;;;5135431;27;20154;-70
2022/05/14 07:02:36;;;;;;;2.33;1.98;;;16.80;99.90;;;;;;5135763;27;20173;-68
2022/05/14 07:07:47;;;;;;;6.18;2.30;;;17.10;99.90;;;;;;5135266;27;20250;-69
2022/05/14 07:10:14;;;;;;;7.77;2.30;;;17.20;99.90;;;;;;5135023;27;20271;-69
2022/05/14 07:12:39;;;;;;;3.72;2.28;;;17.40;99.90;;;;;;5136522;27;20276;-68
2022/05/14 07:15:07;;;;;;;2.72;2.28;;;17.60;99.90;;;;;;5136370;27;20601;-69
2022/05/14 07:17:33;;;;;;;6.53;2.47;;;17.60;99.90;;;;;;5135490;27;20200;-68
2022/05/14 07:19:59;;;;;;;4.43;2.38;;;17.50;99.90;;;;;;5135130;27;20158;-66
2022/05/14 07:22:24;;;;;;;5.93;2.60;;;17.60;99.90;;;;;;5116811;27;20253;-69
2022/05/14 07:24:50;;;;;;;5.70;2.50;;;17.80;99.90;;;;;;5134822;27;20161;-71
2022/05/14 07:27:16;;;;;;;11.13;3.00;;;18.00;99.90;;;;;;5134944;27;20165;-68
2022/05/14 07:29:44;;;;;;;3.53;2.30;;;17.90;99.90;;;;;;5135008;27;20185;-68
2022/05/14 07:32:12;;;;;;;3.10;2.15;;;18.00;99.90;;;;;;5134409;27;20246;-70
2022/05/14 07:34:39;;;;;;;3.65;2.28;;;18.10;99.90;;;;;;5134079;27;20201;-69
2022/05/14 07:37:13;;;;;;;7.88;2.80;;;18.40;99.90;;;;;;5116025;27;20165;-67
2022/05/14 07:40:04;;;;;;;10.98;3.08;;;18.30;99.90;;;;;;5151203;27;20166;-70
2022/05/14 07:43:00;;;;;;;10.73;3.05;;;18.20;99.90;;;;;;5135381;27;20498;-72
2022/05/14 07:45:32;;;;;;;7.78;3.17;;;18.40;99.90;;;;;;5135045;27;20165;-69
2022/05/14 07:48:00;;;;;;;4.50;2.78;;;18.50;99.70;;;;;;5134800;27;20150;-70
2022/05/14 07:50:27;;;;;;;5.03;3.00;;;18.50;99.80;;;;;;5120107;28;20496;-69
2022/05/14 07:52:52;;;;;;;3.80;2.75;;;18.70;99.90;;;;;;5141701;27;20218;-74
2022/05/14 07:55:18;;;;;;;3.60;2.53;;;18.60;99.70;;;;;;5142822;27;20602;-70
2022/05/14 07:57:44;;;;;;;7.18;3.10;;;18.60;99.80;;;;;;5141876;27;20158;-70
2022/05/14 08:00:11;;;;;;;4.57;2.75;;;18.60;99.90;;;;;;5134596;27;20177;-68
2022/05/14 08:02:37;;;;;;;4.32;2.95;;;18.60;99.90;;;;;;5150681;27;20234;-70
2022/05/14 08:05:05;;;;;;;7.05;3.40;;;18.80;99.90;;;;;;5134256;27;20177;-72
2022/05/14 08:07:31;;;;;;;6.78;3.88;;;18.80;98.50;;;;;;5134124;27;20251;-70
2022/05/14 08:09:58;;;;;;;5.68;3.25;;;18.80;98.60;;;;;;5135785;28;20162;-69
2022/05/14 08:12:24;;;;;;;4.82;3.40;;;18.90;98.80;;;;;;5137406;28;20197;-69
2022/05/14 08:14:50;;;;;;;6.63;3.78;;;19.00;97.40;;;;;;5138741;28;20252;-69
2022/05/14 08:17:16;;;;;;;5.60;3.60;;;18.80;97.20;;;;;;5138326;28;20260;-70
2022/05/14 08:19:42;;;;;;;8.10;4.45;;;18.80;97.60;;;;;;5138809;28;20169;-72
2022/05/14 08:24:52;;;;;;;8.63;3.45;;;18.60;97.60;;;;;;5142380;28;20154;-69
2022/05/14 08:27:18;;;;;;;4.78;3.00;;;18.70;98.20;;;;;;5134986;28;20585;-69
2022/05/14 08:29:47;;;;;;;8.10;3.53;;;18.90;98.00;;;;;;5134857;28;20169;-69
2022/05/14 08:32:14;;;;;;;5.55;3.92;;;18.90;96.20;;;;;;5117029;28;20247;-70
2022/05/14 08:34:40;;;;;;;5.85;3.63;;;18.80;96.20;;;;;;5116216;28;20174;-71
2022/05/14 08:37:07;;;;;;;5.40;3.08;;;19.00;96.60;;;;;;5135685;28;20207;-69
2022/05/14 08:39:33;;;;;;;8.25;3.13;;;19.30;95.80;;;;;;5121878;28;20173;-68
2022/05/14 08:42:00;;;;;;;4.82;2.80;;;19.40;95.10;;;;;;5136383;28;20540;-67
2022/05/14 08:44:30;;;;;;;6.72;3.28;;;19.50;94.60;;;;;;5135205;28;20146;-70
2022/05/14 08:46:59;;;;;;;5.13;3.25;;;19.70;95.30;;;;;;5135459;27;20161;-70
2022/05/14 08:49:41;;;;;;;4.82;3.17;;;19.80;94.20;;;;;;5120924;27;20188;-69
2022/05/14 08:52:20;;;;;;;3.20;2.90;;;19.80;93.50;;;;;;5138902;27;20224;-71
2022/05/14 08:54:46;;;;;;;4.47;2.90;;;20.00;93.60;;;;;;5139549;27;20173;-72
2022/05/14 08:57:25;;;;;;;5.35;3.35;;;20.00;92.60;;;;;;5139337;27;20203;-70
2022/05/14 08:59:52;;;;;;;5.20;3.58;;;19.90;93.00;;;;;;5139666;27;20161;-69
2022/05/14 09:02:43;;;;;;;7.28;3.33;;;20.10;92.00;;;;;;5138437;27;20192;-70
2022/05/14 09:05:12;;;;;;;5.95;3.22;;;20.20;91.40;;;;;;5138193;27;20249;-72
2022/05/14 09:07:38;;;;;;;5.90;3.40;;;20.50;92.10;;;;;;5143020;27;20228;-71
2022/05/14 09:10:08;;;;;;;3.80;2.95;;;20.80;90.80;;;;;;5126715;27;20173;-71
2022/05/14 09:12:36;;;;;;;7.97;3.67;;;20.40;90.50;;;;;;5142202;27;20258;-71
2022/05/14 09:15:13;;;;;;;6.10;3.55;;;20.50;90.60;;;;;;5139704;27;20241;-71
2022/05/14 09:17:38;;;;;;;5.38;3.53;;;20.70;90.10;;;;;;5127727;27;20562;-68
2022/05/14 09:20:05;;;;;;;9.65;3.08;;;20.60;88.80;;;;;;5127997;27;20200;-71
2022/05/14 09:22:53;;;;;;;5.30;3.83;;;20.80;88.80;;;;;;5142734;27;20213;-69
2022/05/14 09:25:27;;;;;;;4.50;3.30;;;20.80;88.30;;;;;;5149022;27;20157;-70
2022/05/14 09:28:00;;;;;;;3.83;3.00;;;21.00;88.00;;;;;;5122609;27;20180;-72
2022/05/14 09:30:36;;;;;;;10.65;4.07;;;21.10;87.50;;;;;;5137925;27;20165;-70
2022/05/14 09:33:04;;;;;;;7.38;3.83;;;21.30;85.40;;;;;;5119185;27;20197;-70
2022/05/14 09:35:32;;;;;;;4.18;3.72;;;21.20;84.70;;;;;;5137372;27;20197;-71
2022/05/14 09:38:18;;;;;;;8.65;4.10;;;21.00;83.80;;;;;;5137157;27;20157;-70
2022/05/14 09:40:44;;;;;;;8.90;3.88;;;21.10;85.50;;;;;;5153671;27;20176;-71
2022/05/14 09:43:16;;;;;;;10.77;3.80;;;21.20;83.80;;;;;;5137371;27;20157;-70
2022/05/14 09:45:57;;;;;;;7.25;4.15;;;21.10;83.80;;;;;;5137419;27;20586;-69
2022/05/14 09:48:34;;;;;;;6.80;3.58;;;21.00;81.80;;;;;;5137114;27;20627;-69
2022/05/14 09:51:06;;;;;;;6.32;3.92;;;21.10;82.40;;;;;;5137271;27;20156;-71
2022/05/14 09:53:35;;;;;;;8.98;3.85;;;21.10;83.00;;;;;;5137175;27;20204;-71
2022/05/14 09:56:10;;;;;;;10.70;4.00;;;21.40;82.80;;;;;;5137472;27;20157;-70
2022/05/14 09:59:06;;;;;;;4.18;3.58;;;21.60;81.20;;;;;;5136207;27;20157;-69
2022/05/14 10:01:41;;;;;;;8.05;4.28;;;21.70;80.90;;;;;;5139279;27;20606;-70
2022/05/14 10:04:31;;;;;;;39.72;12.38;;;21.60;79.90;;;;;;5120814;27;20265;-70
2022/05/14 10:07:05;;;;;;;12.00;4.88;;;21.70;79.10;;;;;;5137339;27;20225;-71
2022/05/14 10:09:41;;;;;;;6.13;4.07;;;21.50;79.70;;;;;;5137640;27;20294;-71
2022/05/14 10:12:14;;;;;;;8.52;4.22;;;21.60;77.60;;;;;;5136883;27;20251;-71
2022/05/14 10:15:18;;;;;;;5.28;3.78;;;21.80;76.60;;;;;;5137289;27;20181;-73
2022/05/14 10:18:13;;;;;;;5.28;3.95;;;21.90;77.30;;;;;;5141219;27;20240;-73
2022/05/14 10:20:46;;;;;;;5.75;3.85;;;22.40;75.70;;;;;;5130494;27;20213;-72
2022/05/14 10:26:45;;;;;;;11.32;3.63;;;22.30;73.30;;;;;;5139969;27;20168;-71
2022/05/14 10:29:31;;;;;;;8.10;4.03;;;22.00;74.90;;;;;;5124554;27;20173;-70
2022/05/14 10:32:01;;;;;;;6.07;4.35;;;22.00;74.70;;;;;;5118059;28;20176;-71
2022/05/14 10:34:45;;;;;;;5.72;3.78;;;22.00;75.60;;;;;;5098730;28;20182;-71
2022/05/14 10:37:32;;;;;;;9.70;3.90;;;22.10;75.80;;;;;;5115999;28;20214;-72
2022/05/14 10:40:16;;;;;;;19.73;7.22;;;22.40;76.90;;;;;;5115791;28;20259;-70
2022/05/14 10:42:48;;;;;;;18.27;8.98;;;22.70;81.20;;;;;;5116087;28;20594;-72
2022/05/14 10:45:37;;;;;;;15.45;11.10;;;22.90;78.70;;;;;;5097313;28;20182;-71
2022/05/14 10:48:28;;;;;;;34.35;14.93;;;23.00;79.40;;;;;;5115122;28;20158;-72
2022/05/14 10:50:54;;;;;;;17.33;8.00;;;22.90;79.00;;;;;;5115183;28;20194;-73
2022/05/14 10:53:20;;;;;;;4.75;3.35;;;22.80;77.10;;;;;;5097668;28;20206;-71
2022/05/14 10:56:14;;;;;;;6.68;3.75;;;22.20;77.10;;;;;;5116032;28;20166;-71
2022/05/14 10:59:07;;;;;;;5.25;3.08;;;22.00;76.50;;;;;;5115244;28;20154;-72
2022/05/14 11:01:46;;;;;;;5.00;3.40;;;22.10;74.80;;;;;;5085486;28;20202;-69
2022/05/14 11:04:26;;;;;;;7.18;3.05;;;22.30;74.10;;;;;;5113158;28;20162;-71
2022/05/14 11:07:16;;;;;;;7.85;3.20;;;22.40;72.20;;;;;;5115932;28;20688;-73
2022/05/14 11:09:49;;;;;;;5.15;2.90;;;22.20;72.40;;;;;;5096524;28;20178;-71
2022/05/14 11:12:18;;;;;;;4.70;2.83;;;22.10;71.70;;;;;;5114804;28;20487;-69
2022/05/14 11:14:54;;;;;;;8.93;4.13;;;22.00;71.80;;;;;;5115234;28;20170;-71
2022/05/14 11:17:32;;;;;;;6.95;3.08;;;22.10;72.30;;;;;;5114859;28;20162;-72
2022/05/14 11:20:10;;;;;;;3.92;2.83;;;22.50;73.10;;;;;;5097143;28;20181;-73
2022/05/14 11:22:39;;;;;;;3.83;2.70;;;22.60;70.70;;;;;;5131106;27;20178;-71
2022/05/14 11:25:34;;;;;;;6.45;2.80;;;22.30;71.20;;;;;;5116214;28;20243;-70
2022/05/14 11:28:11;;;;;;;4.93;2.40;;;22.30;71.30;;;;;;5105969;28;20190;-71
2022/05/14 11:30:47;;;;;;;4.15;2.47;;;22.00;71.40;;;;;;5096594;28;20173;-70
2022/05/14 11:33:33;;;;;;;4.85;2.83;;;21.90;71.90;;;;;;5114658;28;20548;-70
2022/05/14 11:36:15;;;;;;;4.65;2.47;;;22.00;72.20;;;;;;5095532;28;20178;-72
2022/05/14 11:38:45;;;;;;;6.95;2.65;;;21.90;73.40;;;;;;5115075;28;20241;-70
2022/05/14 11:41:25;;;;;;;3.25;2.42;;;21.80;73.10;;;;;;5114480;28;20162;-71
2022/05/14 11:43:51;;;;;;;5.68;2.70;;;21.80;72.40;;;;;;5096151;28;20197;-71
2022/05/14 11:46:25;;;;;;;5.38;2.92;;;22.00;74.10;;;;;;5114179;28;20162;-70
2022/05/14 11:48:51;;;;;;;6.50;2.40;;;22.20;74.20;;;;;;5114576;28;20172;-72
2022/05/14 11:51:36;;;;;;;6.00;2.40;;;22.30;72.30;;;;;;5113978;28;20162;-71
2022/05/14 11:54:08;;;;;;;3.67;2.20;;;22.30;69.90;;;;;;5114656;28;20576;-69
2022/05/14 11:56:59;;;;;;;4.85;2.38;;;22.10;70.70;;;;;;5114534;28;20169;-70
2022/05/14 11:59:34;;;;;;;3.97;2.75;;;22.20;72.40;;;;;;5103445;28;20193;-71
2022/05/14 12:02:02;;;;;;;3.95;2.40;;;22.30;71.50;;;;;;5114534;28;20264;-72
2022/05/14 12:04:40;;;;;;;3.72;2.33;;;22.20;72.40;;;;;;5115035;28;20162;-72
2022/05/14 12:07:22;;;;;;;6.70;2.53;;;22.40;71.40;;;;;;5115078;28;20551;-72
2022/05/14 12:10:07;;;;;;;5.00;2.38;;;22.30;71.60;;;;;;5115695;28;20158;-72
2022/05/14 12:12:43;;;;;;;3.92;2.30;;;22.40;72.20;;;;;;5124014;28;20249;-70
2022/05/14 12:15:14;;;;;;;7.25;2.60;;;22.00;72.20;;;;;;5122110;28;20165;-71
2022/05/14 12:17:48;;;;;;;5.35;2.40;;;21.80;73.20;;;;;;5114440;28;20155;-72
2022/05/14 12:20:26;;;;;;;5.90;2.90;;;22.20;73.30;;;;;;5114231;28;20166;-70
2022/05/14 12:22:56;;;;;;;6.18;2.50;;;22.10;72.40;;;;;;5118715;28;20227;-73
2022/05/14 12:25:35;;;;;;;3.55;2.25;;;21.80;73.50;;;;;;5121909;28;20154;-72
2022/05/14 12:28:01;;;;;;;5.07;2.50;;;21.80;73.70;;;;;;5121562;28;20161;-71
2022/05/14 12:33:18;;;;;;;11.25;4.97;;;22.30;71.30;;;;;;5122755;28;20192;-71
2022/05/14 12:35:56;;;;;;;7.85;3.28;;;22.50;69.80;;;;;;5123487;28;20163;-69
2022/05/14 12:38:35;;;;;;;6.93;2.65;;;22.30;67.20;;;;;;5118625;28;20260;-72
2022/05/14 12:41:05;;;;;;;9.35;2.90;;;22.40;67.80;;;;;;5118197;28;20166;-70
2022/05/14 12:43:31;;;;;;;8.18;2.33;;;22.70;66.60;;;;;;5118478;28;20155;-72
2022/05/14 12:46:11;;;;;;;7.03;2.30;;;22.60;66.20;;;;;;5118454;28;20672;-70
2022/05/14 12:48:45;;;;;;;8.10;3.20;;;22.80;65.70;;;;;;5119165;28;20158;-72
2022/05/14 12:51:20;;;;;;;4.60;2.47;;;22.70;65.40;;;;;;5119467;28;20484;-71
2022/05/14 12:53:46;;;;;;;3.83;2.20;;;22.50;64.80;;;;;;5101082;28;20633;-69
2022/05/14 12:56:12;;;;;;;11.27;6.43;;;22.90;65.70;;;;;;5118769;28;20231;-72
2022/05/14 12:58:39;;;;;;;17.95;9.23;;;23.30;63.00;;;;;;5105095;28;20178;-71
2022/05/14 13:01:07;;;;;;;8.45;4.82;;;23.40;63.30;;;;;;5124387;28;20184;-68
2022/05/14 13:03:39;;;;;;;6.30;3.47;;;23.10;61.50;;;;;;5123479;28;20170;-72
2022/05/14 13:06:13;;;;;;;5.07;2.67;;;23.20;63.10;;;;;;5124321;28;20222;-71
2022/05/14 13:08:45;;;;;;;2.88;2.05;;;23.10;60.90;;;;;;5123963;28;20162;-69
2022/05/14 13:11:15;;;;;;;3.80;2.40;;;23.20;61.90;;;;;;5125099;28;20169;-70
2022/05/14 13:13:44;;;;;;;8.65;2.33;;;23.20;60.20;;;;;;5125030;28;20198;-72
2022/05/14 13:16:26;;;;;;;7.15;2.65;;;23.30;60.70;;;;;;5121466;28;20173;-70
2022/05/14 13:18:53;;;;;;;5.68;2.38;;;23.40;59.90;;;;;;5117400;28;20174;-70
2022/05/14 13:21:29;;;;;;;5.50;2.42;;;23.30;60.80;;;;;;5124158;28;20205;-70
2022/05/14 13:24:04;;;;;;;3.85;2.35;;;23.20;60.70;;;;;;5123666;28;20165;-70